createdAt,value
2019-03-26T00:00:00.982Z,5.80
2019-03-26T00:02:28.130Z,5.90
2019-03-26T00:04:55.073Z,5.58
2019-03-26T00:07:22.119Z,5.60
2019-03-26T00:09:49.063Z,5.80
2019-03-26T00:12:16.007Z,5.60
2019-03-26T00:14:43.055Z,5.87
2019-03-26T00:17:10.102Z,5.85
2019-03-26T00:19:37.149Z,6.60
2019-03-26T00:22:04.195Z,6.12
2019-03-26T00:24:31.243Z,6.70
2019-03-26T00:26:58.084Z,6.70
2019-03-26T00:29:25.129Z,6.75
2019-03-26T00:31:52.074Z,7.08
2019-03-26T00:34:19.811Z,7.00
2019-03-26T00:36:46.974Z,6.90
2019-03-26T00:39:13.934Z,6.80
2019-03-26T00:41:40.875Z,7.08
2019-03-26T00:44:08.945Z,6.55
2019-03-26T00:46:35.993Z,6.85
2019-03-26T00:49:02.938Z,7.78
2019-03-26T00:51:30.024Z,7.15
2019-03-26T00:53:56.927Z,6.97
2019-03-26T00:56:23.975Z,7.20
2019-03-26T00:58:50.921Z,7.67
2019-03-26T01:01:17.965Z,7.70
2019-03-26T01:03:45.011Z,7.20
2019-03-26T01:06:12.057Z,6.20
2019-03-26T01:08:39.002Z,6.65
2019-03-26T01:11:05.947Z,7.72
2019-03-26T01:13:32.993Z,7.03
2019-03-26T01:16:00.041Z,7.20
2019-03-26T01:18:27.087Z,7.00
2019-03-26T01:20:53.956Z,7.10
2019-03-26T01:23:20.733Z,6.62
2019-03-26T01:25:47.561Z,8.00
2019-03-26T01:28:14.559Z,7.10
2019-03-26T01:30:41.504Z,7.70
2019-03-26T01:33:08.547Z,7.10
2019-03-26T01:35:35.497Z,7.58
2019-03-26T01:38:02.542Z,8.00
2019-03-26T01:40:29.482Z,8.50
2019-03-26T01:42:56.426Z,8.30
2019-03-26T01:45:23.371Z,8.48
2019-03-26T01:47:50.315Z,8.33
2019-03-26T01:50:17.362Z,8.58
2019-03-26T01:52:44.306Z,8.18
2019-03-26T01:55:11.355Z,7.70
2019-03-26T01:57:38.399Z,7.85
2019-03-26T02:00:05.763Z,8.50
2019-03-26T02:02:34.642Z,8.35
2019-03-26T02:05:01.793Z,8.13
2019-03-26T02:07:28.736Z,8.35
2019-03-26T02:09:55.783Z,9.35
2019-03-26T02:12:22.727Z,7.60
2019-03-26T02:14:49.856Z,8.40
2019-03-26T02:17:16.718Z,8.70
2019-03-26T02:19:43.665Z,9.30
2019-03-26T02:22:10.607Z,8.40
2019-03-26T02:24:37.552Z,9.40
2019-03-26T02:27:04.597Z,8.70
2019-03-26T02:29:31.647Z,9.30
2019-03-26T02:31:58.589Z,9.48
2019-03-26T02:34:25.534Z,9.38
2019-03-26T02:36:52.585Z,9.70
2019-03-26T02:39:19.524Z,9.40
2019-03-26T02:41:46.468Z,9.77
2019-03-26T02:44:13.521Z,9.15
2019-03-26T02:46:40.565Z,9.00
2019-03-26T02:49:07.609Z,8.63
2019-03-26T02:51:34.654Z,10.50
2019-03-26T02:54:01.622Z,9.85
2019-03-26T02:56:28.583Z,9.88
2019-03-26T02:58:55.590Z,10.40
2019-03-26T03:01:22.534Z,10.03
2019-03-26T03:03:49.623Z,10.18
2019-03-26T03:06:20.253Z,10.72
2019-03-26T03:08:52.359Z,10.70
2019-03-26T03:11:21.473Z,10.10
2019-03-26T03:13:48.621Z,10.68
2019-03-26T03:16:16.283Z,10.35
2019-03-26T03:18:43.234Z,10.50
2019-03-26T03:21:10.274Z,10.20
2019-03-26T03:23:37.219Z,11.33
2019-03-26T03:26:04.097Z,10.30
2019-03-26T03:28:31.413Z,11.07
2019-03-26T03:30:58.563Z,11.30
2019-03-26T03:33:25.507Z,10.53
2019-03-26T03:35:53.141Z,10.93
2019-03-26T03:38:20.234Z,10.55
2019-03-26T03:40:47.011Z,10.32
2019-03-26T03:43:13.788Z,10.23
2019-03-26T03:45:40.646Z,9.58
2019-03-26T03:48:09.034Z,10.75
2019-03-26T03:50:37.769Z,10.30
2019-03-26T03:53:05.388Z,10.32
2019-03-26T03:55:33.278Z,11.30
2019-03-26T03:58:00.918Z,9.75
2019-03-26T04:00:31.260Z,8.40
2019-03-26T04:02:58.037Z,9.20
2019-03-26T04:05:24.869Z,9.00
2019-03-26T04:07:51.649Z,9.75
2019-03-26T04:10:18.506Z,10.50
2019-03-26T04:12:45.293Z,9.43
2019-03-26T04:15:12.089Z,9.93
2019-03-26T04:17:38.922Z,9.75
2019-03-26T04:20:06.050Z,9.70
2019-03-26T04:22:32.967Z,9.00
2019-03-26T04:24:59.753Z,9.88
2019-03-26T04:27:26.603Z,9.90
2019-03-26T04:29:53.430Z,10.50
2019-03-26T04:32:20.307Z,9.90
2019-03-26T04:34:47.077Z,11.00
2019-03-26T04:37:13.857Z,11.08
2019-03-26T04:39:40.739Z,10.18
2019-03-26T04:42:07.568Z,10.83
2019-03-26T04:44:34.396Z,10.40
2019-03-26T04:47:01.188Z,10.35
2019-03-26T04:49:28.070Z,10.38
2019-03-26T04:51:54.859Z,11.33
2019-03-26T04:54:21.637Z,10.13
2019-03-26T04:56:48.472Z,10.35
2019-03-26T04:59:15.252Z,11.50
2019-03-26T05:01:42.094Z,11.90
2019-03-26T05:04:08.956Z,11.97
2019-03-26T05:06:38.295Z,11.90
2019-03-26T05:09:04.423Z,10.70
2019-03-26T05:11:31.260Z,10.78
2019-03-26T05:13:58.043Z,11.57
2019-03-26T05:16:24.881Z,11.33
2019-03-26T05:18:51.722Z,10.88
2019-03-26T05:21:18.505Z,12.00
2019-03-26T05:23:45.336Z,12.60
2019-03-26T05:26:12.136Z,12.58
2019-03-26T05:28:38.977Z,13.90
2019-03-26T05:31:05.812Z,13.90
2019-03-26T05:33:32.653Z,13.50
2019-03-26T05:35:59.450Z,12.93
2019-03-26T05:38:26.292Z,13.40
2019-03-26T05:40:53.081Z,14.63
2019-03-26T05:43:20.013Z,14.93
2019-03-26T05:45:46.859Z,14.70
2019-03-26T05:48:13.679Z,14.60
2019-03-26T05:50:40.518Z,13.90
2019-03-26T05:53:07.293Z,13.65
2019-03-26T05:55:34.733Z,13.98
2019-03-26T05:58:01.560Z,13.85
2019-03-26T06:00:28.441Z,14.35
2019-03-26T06:02:55.232Z,15.40
2019-03-26T06:05:22.068Z,15.60
2019-03-26T06:07:48.914Z,15.28
2019-03-26T06:10:15.724Z,14.60
2019-03-26T06:12:42.588Z,13.00
2019-03-26T06:15:11.232Z,13.70
2019-03-26T06:17:38.012Z,14.30
2019-03-26T06:20:09.209Z,13.25
2019-03-26T06:22:36.060Z,13.43
2019-03-26T06:25:04.702Z,13.28
2019-03-26T06:27:31.496Z,13.68
2019-03-26T06:29:58.329Z,13.90
2019-03-26T06:32:25.121Z,12.75
2019-03-26T06:34:51.970Z,12.45
2019-03-26T06:37:18.813Z,11.88
2019-03-26T06:39:45.661Z,12.20
2019-03-26T06:42:12.492Z,10.80
2019-03-26T06:44:39.326Z,12.18
2019-03-26T06:47:06.103Z,11.55
2019-03-26T06:49:32.934Z,9.65
2019-03-26T06:51:59.717Z,10.00
2019-03-26T06:54:26.536Z,9.48
2019-03-26T06:56:53.321Z,9.20
2019-03-26T06:59:20.209Z,9.83
2019-03-26T07:01:47.500Z,10.38
2019-03-26T07:04:14.616Z,10.17
2019-03-26T07:06:41.423Z,11.00
2019-03-26T07:09:08.277Z,10.00
2019-03-26T07:11:35.315Z,9.65
2019-03-26T07:14:02.403Z,9.20
2019-03-26T07:16:29.319Z,8.93
2019-03-26T07:18:56.161Z,8.10
2019-03-26T07:21:22.945Z,9.65
2019-03-26T07:23:49.778Z,7.80
2019-03-26T07:26:16.616Z,8.50
2019-03-26T07:28:43.448Z,8.48
2019-03-26T07:31:11.157Z,8.38
2019-03-26T07:33:38.013Z,8.40
2019-03-26T07:36:04.801Z,8.10
2019-03-26T07:38:31.656Z,8.35
2019-03-26T07:40:58.480Z,8.28
2019-03-26T07:43:25.274Z,8.23
2019-03-26T07:45:52.703Z,7.17
2019-03-26T07:48:19.536Z,7.10
2019-03-26T07:50:46.327Z,7.35
2019-03-26T07:53:13.764Z,7.10
2019-03-26T07:55:43.655Z,6.90
2019-03-26T07:58:09.195Z,6.25
2019-03-26T08:00:37.179Z,7.12
2019-03-26T08:03:04.611Z,7.05
2019-03-26T08:05:31.448Z,6.40
2019-03-26T08:07:58.857Z,6.80
2019-03-26T08:10:25.804Z,6.50
2019-03-26T08:12:52.572Z,7.37
2019-03-26T08:15:20.353Z,6.83
2019-03-26T08:17:47.349Z,6.67
2019-03-26T08:20:14.341Z,7.05
2019-03-26T08:22:41.181Z,7.10
2019-03-26T08:25:08.215Z,7.30
2019-03-26T08:27:35.054Z,7.58
2019-03-26T08:30:01.834Z,8.25
2019-03-26T08:32:28.669Z,8.53
2019-03-26T08:34:55.509Z,8.58
2019-03-26T08:37:22.300Z,8.93
2019-03-26T08:39:49.163Z,8.40
2019-03-26T08:42:15.943Z,8.50
2019-03-26T08:44:42.730Z,8.35
2019-03-26T08:47:09.568Z,8.10
2019-03-26T08:49:36.405Z,8.90
2019-03-26T08:52:03.248Z,8.00
2019-03-26T08:54:30.029Z,8.05
2019-03-26T08:56:56.901Z,8.10
2019-03-26T08:59:23.681Z,7.60
2019-03-26T09:01:50.727Z,8.20
2019-03-26T09:04:17.573Z,8.70
2019-03-26T09:06:44.352Z,7.50
2019-03-26T09:09:11.201Z,7.80
2019-03-26T09:11:37.984Z,7.97
2019-03-26T09:14:04.820Z,7.58
2019-03-26T09:16:31.603Z,7.45
2019-03-26T09:18:58.447Z,7.70
2019-03-26T09:21:25.230Z,7.62
2019-03-26T09:23:52.072Z,7.22
2019-03-26T09:26:18.857Z,6.90
2019-03-26T09:28:47.870Z,7.55
2019-03-26T09:31:14.333Z,7.45
2019-03-26T09:33:41.117Z,7.37
2019-03-26T09:36:07.956Z,7.50
2019-03-26T09:38:39.094Z,6.53
2019-03-26T09:41:03.603Z,6.60
2019-03-26T09:43:30.388Z,6.77
2019-03-26T09:45:57.229Z,6.42
2019-03-26T09:48:24.072Z,6.80
2019-03-26T09:50:50.918Z,6.15
2019-03-26T09:53:17.695Z,6.90
2019-03-26T09:55:44.740Z,5.95
2019-03-26T09:58:11.544Z,6.20
2019-03-26T10:00:38.431Z,6.33
2019-03-26T10:03:05.540Z,6.20
2019-03-26T10:05:32.318Z,5.70
2019-03-26T10:07:59.152Z,5.72
2019-03-26T10:10:25.940Z,6.03
2019-03-26T10:12:52.780Z,5.70
2019-03-26T10:15:19.572Z,5.50
2019-03-26T10:17:46.417Z,5.80
2019-03-26T10:20:14.301Z,5.95
2019-03-26T10:22:41.838Z,5.70
2019-03-26T10:25:11.059Z,6.30
2019-03-26T10:27:37.596Z,6.10
2019-03-26T10:30:07.262Z,6.40
2019-03-26T10:32:34.405Z,6.03
2019-03-26T10:35:01.684Z,5.80
2019-03-26T10:37:28.520Z,4.92
2019-03-26T10:39:55.300Z,5.00
2019-03-26T10:42:22.137Z,4.78
2019-03-26T10:44:48.960Z,5.28
2019-03-26T10:47:15.813Z,4.92
2019-03-26T10:49:42.600Z,5.40
2019-03-26T10:52:09.420Z,5.28
2019-03-26T10:54:36.265Z,5.20
2019-03-26T10:57:03.093Z,4.58
2019-03-26T10:59:29.942Z,5.17
2019-03-26T11:01:59.781Z,4.67
2019-03-26T11:04:25.427Z,5.12
2019-03-26T11:06:52.306Z,4.58
2019-03-26T11:09:25.379Z,4.60
2019-03-26T11:11:47.752Z,4.05
2019-03-26T11:14:14.588Z,4.50
2019-03-26T11:16:41.373Z,3.75
2019-03-26T11:19:08.165Z,3.70
2019-03-26T11:21:35.004Z,3.30
2019-03-26T11:24:01.793Z,4.00
2019-03-26T11:26:28.633Z,4.00
2019-03-26T11:28:55.425Z,3.58
2019-03-26T11:31:22.264Z,3.70
2019-03-26T11:33:49.105Z,3.80
2019-03-26T11:36:16.034Z,4.20
2019-03-26T11:38:42.845Z,4.37
2019-03-26T11:41:09.625Z,3.85
2019-03-26T11:43:36.474Z,3.80
2019-03-26T11:46:03.457Z,4.08
2019-03-26T11:48:30.289Z,3.87
2019-03-26T11:50:57.128Z,3.60
2019-03-26T11:53:23.919Z,3.30
2019-03-26T11:55:50.765Z,3.98
2019-03-26T11:58:29.572Z,3.90
2019-03-26T12:00:46.234Z,4.53
2019-03-26T12:03:13.029Z,4.25
2019-03-26T12:05:39.875Z,4.90
2019-03-26T12:08:06.653Z,4.40
2019-03-26T12:10:33.493Z,4.30
2019-03-26T12:13:00.334Z,4.20
2019-03-26T12:15:27.113Z,4.30
2019-03-26T12:17:53.956Z,4.30
2019-03-26T12:20:20.753Z,4.60
2019-03-26T12:22:47.597Z,4.20
2019-03-26T12:25:14.375Z,4.62
2019-03-26T12:27:41.191Z,3.98
2019-03-26T12:30:08.534Z,4.40
2019-03-26T12:32:35.788Z,4.55
2019-03-26T12:35:06.580Z,4.10
2019-03-26T12:37:33.418Z,3.80
2019-03-26T12:40:00.801Z,4.00
2019-03-26T12:42:28.037Z,3.98
2019-03-26T12:44:54.858Z,3.80
2019-03-26T12:47:21.693Z,4.37
2019-03-26T12:49:48.533Z,3.85
2019-03-26T12:52:15.381Z,3.60
2019-03-26T12:54:42.221Z,4.10
2019-03-26T12:57:09.049Z,3.40
2019-03-26T12:59:35.837Z,3.75
2019-03-26T13:02:02.725Z,3.80
2019-03-26T13:04:29.636Z,3.70
2019-03-26T13:06:56.541Z,3.65
2019-03-26T13:09:23.419Z,3.70
2019-03-26T13:11:50.633Z,3.10
2019-03-26T13:14:17.421Z,3.30
2019-03-26T13:16:44.265Z,3.10
2019-03-26T13:19:11.053Z,3.20
2019-03-26T13:21:37.905Z,3.20
2019-03-26T13:24:04.836Z,3.20
2019-03-26T13:26:31.817Z,3.60
2019-03-26T13:28:58.701Z,3.20
2019-03-26T13:31:25.568Z,3.40
2019-03-26T13:33:52.353Z,3.00
2019-03-26T13:36:19.134Z,3.20
2019-03-26T13:38:45.976Z,3.40
2019-03-26T13:41:12.830Z,3.70
2019-03-26T13:43:40.064Z,3.67
2019-03-26T13:46:06.893Z,3.17
2019-03-26T13:48:33.686Z,3.30
2019-03-26T13:51:00.518Z,3.33
2019-03-26T13:53:27.309Z,3.10
2019-03-26T13:55:54.160Z,3.50
2019-03-26T13:58:20.953Z,3.20
2019-03-26T14:00:47.786Z,3.40
2019-03-26T14:03:15.260Z,2.92
2019-03-26T14:05:42.036Z,3.20
2019-03-26T14:08:08.841Z,2.87
2019-03-26T14:10:41.317Z,2.72
2019-03-26T14:13:04.625Z,2.90
2019-03-26T14:15:31.516Z,2.70
2019-03-26T14:17:58.345Z,3.10
2019-03-26T14:20:25.207Z,3.30
2019-03-26T14:22:52.045Z,3.20
2019-03-26T14:25:18.841Z,3.20
2019-03-26T14:27:45.676Z,3.50
2019-03-26T14:30:13.059Z,3.67
2019-03-26T14:32:39.917Z,3.70
2019-03-26T14:35:06.907Z,3.60
2019-03-26T14:37:33.721Z,3.50
2019-03-26T14:40:00.625Z,3.47
2019-03-26T14:42:27.404Z,2.98
2019-03-26T14:44:54.237Z,3.10
2019-03-26T14:47:21.133Z,3.40
2019-03-26T14:49:47.957Z,3.70
2019-03-26T14:52:14.790Z,3.10
2019-03-26T14:54:41.621Z,3.50
2019-03-26T14:57:08.457Z,3.70
2019-03-26T14:59:35.260Z,3.70
2019-03-26T15:02:02.094Z,3.83
2019-03-26T15:04:28.932Z,3.80
2019-03-26T15:06:55.771Z,4.28
2019-03-26T15:09:22.552Z,4.40
2019-03-26T15:11:49.388Z,3.95
2019-03-26T15:14:16.201Z,4.00
2019-03-26T15:16:43.045Z,3.50
2019-03-26T15:19:09.824Z,4.37
2019-03-26T15:21:36.600Z,3.72
2019-03-26T15:24:03.740Z,3.70
2019-03-26T15:26:30.516Z,3.90
2019-03-26T15:28:57.360Z,4.05
2019-03-26T15:31:24.145Z,4.50
2019-03-26T15:33:51.372Z,4.30
2019-03-26T15:36:18.196Z,4.00
2019-03-26T15:38:44.985Z,4.30
2019-03-26T15:41:21.381Z,3.72
2019-03-26T15:43:40.473Z,4.30
2019-03-26T15:46:07.309Z,4.30
2019-03-26T15:48:34.099Z,4.00
2019-03-26T15:51:00.989Z,3.70
2019-03-26T15:53:27.780Z,4.12
2019-03-26T15:55:54.590Z,3.70
2019-03-26T15:58:21.429Z,4.30
2019-03-26T16:00:48.212Z,4.40
2019-03-26T16:03:15.100Z,4.42
2019-03-26T16:05:41.879Z,4.80
2019-03-26T16:08:08.725Z,4.70
2019-03-26T16:10:35.523Z,4.30
2019-03-26T16:13:02.696Z,4.30
2019-03-26T16:15:43.010Z,3.90
2019-03-26T16:17:58.131Z,3.60
2019-03-26T16:20:24.969Z,3.70
2019-03-26T16:22:51.762Z,6.78
2019-03-26T16:25:18.612Z,4.40
2019-03-26T16:27:45.400Z,4.60
2019-03-26T16:30:13.032Z,4.72
2019-03-26T16:32:39.864Z,3.95
2019-03-26T16:35:08.507Z,13.35
2019-03-26T16:37:35.341Z,3.90
2019-03-26T16:40:04.233Z,4.00
2019-03-26T16:42:31.072Z,4.20
2019-03-26T16:44:58.173Z,4.43
2019-03-26T16:47:24.991Z,4.00
2019-03-26T16:49:51.827Z,4.03
2019-03-26T16:52:19.905Z,3.85
2019-03-26T16:54:47.033Z,4.10
2019-03-26T16:57:13.865Z,4.00
2019-03-26T16:59:40.696Z,4.00
2019-03-26T17:02:07.481Z,4.60
2019-03-26T17:04:34.320Z,4.20
2019-03-26T17:07:01.200Z,4.47
2019-03-26T17:09:27.984Z,4.80
2019-03-26T17:12:03.188Z,4.85
2019-03-26T17:14:23.623Z,5.07
2019-03-26T17:16:50.461Z,5.08
2019-03-26T17:19:17.240Z,4.80
2019-03-26T17:21:44.081Z,6.47
2019-03-26T17:24:11.060Z,5.70
2019-03-26T17:26:37.905Z,5.60
2019-03-26T17:29:04.737Z,4.72
2019-03-26T17:31:31.520Z,5.10
2019-03-26T17:33:58.364Z,4.95
2019-03-26T17:36:25.310Z,5.22
2019-03-26T17:38:52.085Z,4.60
2019-03-26T17:41:18.916Z,4.30
2019-03-26T17:43:45.753Z,4.70
2019-03-26T17:46:12.628Z,4.50
2019-03-26T17:48:39.444Z,4.40
2019-03-26T17:51:06.229Z,4.60
2019-03-26T17:53:33.088Z,4.15
2019-03-26T17:55:59.929Z,4.72
2019-03-26T17:58:26.765Z,4.70
2019-03-26T18:00:53.584Z,4.85
2019-03-26T18:03:26.406Z,5.05
2019-03-26T18:05:49.048Z,4.57
2019-03-26T18:08:15.885Z,3.95
2019-03-26T18:10:42.721Z,4.40
2019-03-26T18:13:09.565Z,4.90
2019-03-26T18:15:36.405Z,4.87
2019-03-26T18:18:03.185Z,4.58
2019-03-26T18:20:32.741Z,5.10
2019-03-26T18:22:58.732Z,4.95
2019-03-26T18:25:25.557Z,4.08
2019-03-26T18:27:52.345Z,4.50
2019-03-26T18:30:19.172Z,4.20
2019-03-26T18:32:45.965Z,4.50
2019-03-26T18:35:12.812Z,5.05
2019-03-26T18:37:39.652Z,5.90
2019-03-26T18:40:06.534Z,4.90
2019-03-26T18:42:43.370Z,5.08
2019-03-26T18:45:01.973Z,4.85
2019-03-26T18:47:28.791Z,7.67
2019-03-26T18:49:55.569Z,6.60
2019-03-26T18:52:22.401Z,5.70
2019-03-26T18:54:49.224Z,6.60
2019-03-26T18:57:16.086Z,8.05
2019-03-26T18:59:43.041Z,9.15
2019-03-26T19:02:09.873Z,10.08
2019-03-26T19:04:36.802Z,16.70
2019-03-26T19:07:03.641Z,13.98
2019-03-26T19:09:30.477Z,9.68
2019-03-26T19:11:57.332Z,8.30
2019-03-26T19:14:24.118Z,10.95
2019-03-26T19:16:50.939Z,10.87
2019-03-26T19:19:17.720Z,8.75
2019-03-26T19:21:44.556Z,5.37
2019-03-26T19:24:11.404Z,5.50
2019-03-26T19:26:38.254Z,5.62
2019-03-26T19:29:05.466Z,4.70
2019-03-26T19:31:32.329Z,5.72
2019-03-26T19:33:59.125Z,6.00
2019-03-26T19:36:25.904Z,5.53
2019-03-26T19:38:52.756Z,6.28
2019-03-26T19:41:19.585Z,7.37
2019-03-26T19:43:46.396Z,6.42
2019-03-26T19:46:13.644Z,6.20
2019-03-26T19:48:40.489Z,5.40
2019-03-26T19:51:07.263Z,4.83
2019-03-26T19:53:34.185Z,5.80
2019-03-26T19:56:00.997Z,4.70
2019-03-26T19:58:27.836Z,4.67
2019-03-26T20:00:54.617Z,4.87
2019-03-26T20:03:21.464Z,4.90
2019-03-26T20:05:48.300Z,5.33
2019-03-26T20:08:15.140Z,4.95
2019-03-26T20:10:41.924Z,5.00
2019-03-26T20:13:08.772Z,5.20
2019-03-26T20:15:35.567Z,5.00
2019-03-26T20:18:02.348Z,5.20
2019-03-26T20:20:29.180Z,5.50
2019-03-26T20:22:55.956Z,4.70
2019-03-26T20:25:22.851Z,5.03
2019-03-26T20:27:49.676Z,4.62
2019-03-26T20:30:16.663Z,5.00
2019-03-26T20:32:43.497Z,4.90
2019-03-26T20:35:10.486Z,5.10
2019-03-26T20:37:38.765Z,5.35
2019-03-26T20:40:08.994Z,5.95
2019-03-26T20:42:36.129Z,5.90
2019-03-26T20:45:05.837Z,5.60
2019-03-26T20:47:33.913Z,5.33
2019-03-26T20:50:00.693Z,6.00
2019-03-26T20:52:27.549Z,5.70
2019-03-26T20:54:56.135Z,5.35
2019-03-26T20:57:24.898Z,5.50
2019-03-26T20:59:51.764Z,6.00
2019-03-26T21:02:18.547Z,5.20
2019-03-26T21:04:45.385Z,7.05
2019-03-26T21:07:12.557Z,6.37
2019-03-26T21:09:41.172Z,6.20
2019-03-26T21:12:08.000Z,5.07
2019-03-26T21:14:34.849Z,5.22
2019-03-26T21:17:02.073Z,5.17
2019-03-26T21:19:28.980Z,5.00
2019-03-26T21:21:55.806Z,5.22
2019-03-26T21:24:22.636Z,5.42
2019-03-26T21:26:49.491Z,5.42
2019-03-26T21:29:16.260Z,5.70
2019-03-26T21:31:43.158Z,5.50
2019-03-26T21:34:10.003Z,6.60
2019-03-26T21:36:36.801Z,6.22
2019-03-26T21:39:04.692Z,6.92
2019-03-26T21:41:31.553Z,5.70
2019-03-26T21:44:04.255Z,6.42
2019-03-26T21:46:27.039Z,5.72
2019-03-26T21:48:53.885Z,6.80
2019-03-26T21:51:20.668Z,6.42
2019-03-26T21:53:47.505Z,6.55
2019-03-26T21:56:14.373Z,7.05
2019-03-26T21:58:41.214Z,5.80
2019-03-26T22:01:08.050Z,6.60
2019-03-26T22:03:34.885Z,7.83
2019-03-26T22:06:01.720Z,7.30
2019-03-26T22:08:28.548Z,7.78
2019-03-26T22:10:55.410Z,9.10
2019-03-26T22:13:22.265Z,6.90
2019-03-26T22:15:49.103Z,6.50
2019-03-26T22:18:15.944Z,6.97
2019-03-26T22:20:42.831Z,7.03
2019-03-26T22:23:09.708Z,7.28
2019-03-26T22:25:36.559Z,7.65
2019-03-26T22:28:04.342Z,6.50
2019-03-26T22:30:31.204Z,6.15
2019-03-26T22:32:57.985Z,7.10
2019-03-26T22:35:24.835Z,6.80
2019-03-26T22:37:51.721Z,7.25
2019-03-26T22:40:18.648Z,7.10
2019-03-26T22:42:45.530Z,6.65
2019-03-26T22:45:13.121Z,6.45
2019-03-26T22:47:39.951Z,5.90
2019-03-26T22:50:08.034Z,5.72
2019-03-26T22:52:34.935Z,5.73
2019-03-26T22:55:01.760Z,5.85
2019-03-26T22:57:28.723Z,5.75
2019-03-26T22:59:55.505Z,6.40
2019-03-26T23:02:22.342Z,5.90
2019-03-26T23:04:49.129Z,5.78
2019-03-26T23:07:15.971Z,5.70
2019-03-26T23:09:42.753Z,5.50
2019-03-26T23:12:09.593Z,6.00
2019-03-26T23:14:45.070Z,6.42
2019-03-26T23:17:05.053Z,6.72
2019-03-26T23:19:31.941Z,6.90
2019-03-26T23:21:58.779Z,7.20
2019-03-26T23:24:25.569Z,7.75
2019-03-26T23:26:52.364Z,8.50
2019-03-26T23:29:19.212Z,9.25
2019-03-26T23:31:46.054Z,9.03
2019-03-26T23:34:12.903Z,8.58
2019-03-26T23:36:39.792Z,9.30
2019-03-26T23:39:06.633Z,10.08
2019-03-26T23:41:33.517Z,8.93
2019-03-26T23:44:00.306Z,9.60
2019-03-26T23:46:27.140Z,9.10
2019-03-26T23:48:53.992Z,9.60
2019-03-26T23:51:21.675Z,9.08
2019-03-26T23:53:48.472Z,10.70
2019-03-26T23:56:15.309Z,10.58
2019-03-26T23:58:42.151Z,11.10
